sim
Sign-in with your pilot id or email,
or register
Callsign
Passwort

Schedule Details

Flight Number: RYR3741 (2)
Departure: Birmingham Airport (EGBB) at 13:30
Arrival: Fuerteventura Airport (GCFV) at 17:40
Route: Ryanair Passenger Schedule. Enter filed route here before submitting Pirep.

Weather Information
Getting current METAR information for EGBB 160250Z 20010KT 9999 OVC021 09/06 Q1019
Getting current METAR information for GCFV 160230Z AUTO 28005KT 9999 NCD 13/10 Q1018

Schedule Frequency

Route Map